Johnsonburg, New Jersey
Current Conditions -  °F | °C
As of 9:53 PM on Sunday 21 Dec 2014 (Local Time) from KFWN Reporting Station
Overcast Overcast  
Wind Chill: 26°   Ceiling: 3400
Heat Index: 31°   Visibility: 10mi
Dew Point: 26°   Wind: 5mph
Humidity: 82%   Direction: 30°NNE
Pressure: 30.32"   Gusts: NA
Location:  40.96°N, 74.88°W
Report Text: KFWN 220253Z AUTO 03004KT 10SM OVC034 M01/M03 A3032 RMK AO2 SLP273 T10061033 50000
Loading
Personal Weather Stations






























Interactive Weather Map New forecast layout! Learn more

10-Day Weather Forecast

Advertisements
Track Severe Weather on mobile